Time;durP1;ratioP1;P1;durP2;ratioP2;P2;SDS_P1;SDS_P2;PMS_P1;PMS_P2;Temp;Humidity;BMP_temperature;BMP_pressure;BME280_temperature;BME280_humidity;BME280_pressure;Samples;Min_cycle;Max_cycle;Signal;HPM_P1;HPM_P2
2023/04/06 00:01:39;;;;;;;16.60;9.27;;;3.00;71.30;;;;;;4983359;28;20183;-73
2023/04/06 00:04:05;;;;;;;16.10;9.20;;;2.90;71.60;;;;;;4988597;28;20489;-72
2023/04/06 00:06:31;;;;;;;15.23;8.67;;;2.90;71.70;;;;;;4989774;28;20508;-72
2023/04/06 00:08:58;;;;;;;16.77;9.10;;;2.90;72.00;;;;;;4993110;28;20426;-72
2023/04/06 00:11:23;;;;;;;16.53;9.17;;;2.90;72.00;;;;;;4994337;28;20420;-73
2023/04/06 00:13:49;;;;;;;16.40;8.53;;;2.90;72.00;;;;;;4990473;28;20462;-70
2023/04/06 00:16:14;;;;;;;14.57;8.30;;;2.90;72.00;;;;;;4988206;28;20302;-71
2023/04/06 00:18:40;;;;;;;13.23;8.30;;;2.80;72.10;;;;;;4991389;28;20261;-71
2023/04/06 00:21:06;;;;;;;19.70;9.23;;;2.80;72.40;;;;;;4991552;28;20541;-72
2023/04/06 00:23:32;;;;;;;21.07;9.70;;;2.80;72.30;;;;;;4986835;28;20469;-72
2023/04/06 00:25:58;;;;;;;16.03;9.33;;;2.70;72.40;;;;;;4988865;28;20440;-71
2023/04/06 00:28:26;;;;;;;16.27;9.50;;;2.70;72.70;;;;;;4990654;28;20197;-71
2023/04/06 00:30:53;;;;;;;14.30;9.88;;;2.60;72.60;;;;;;4991905;28;20189;-71
2023/04/06 00:33:20;;;;;;;17.90;9.83;;;2.60;72.60;;;;;;4988364;28;20206;-74
2023/04/06 00:35:45;;;;;;;17.97;9.60;;;2.50;72.40;;;;;;4987255;28;20430;-73
2023/04/06 00:38:12;;;;;;;18.00;9.67;;;2.50;72.10;;;;;;4990710;28;20418;-71
2023/04/06 00:40:39;;;;;;;16.53;8.47;;;2.50;72.10;;;;;;4989225;28;20183;-72
2023/04/06 00:43:09;;;;;;;15.63;8.65;;;2.60;72.00;;;;;;4989843;28;20501;-73
2023/04/06 00:45:35;;;;;;;18.47;9.63;;;2.60;72.00;;;;;;4989387;28;20178;-72
2023/04/06 00:48:01;;;;;;;14.93;9.23;;;2.70;72.00;;;;;;4987939;28;20879;-71
2023/04/06 00:50:27;;;;;;;20.03;8.97;;;2.70;71.00;;;;;;4988034;28;20501;-71
2023/04/06 00:52:54;;;;;;;13.73;9.53;;;2.80;71.00;;;;;;4990702;28;20418;-70
2023/04/06 00:55:20;;;;;;;17.60;9.15;;;2.80;71.00;;;;;;4984860;28;20968;-70
2023/04/06 00:57:46;;;;;;;14.87;9.00;;;2.80;71.10;;;;;;4986175;28;20269;-71
2023/04/06 01:00:12;;;;;;;14.20;9.13;;;2.70;71.40;;;;;;4985463;28;20214;-71
2023/04/06 01:02:38;;;;;;;18.40;10.00;;;2.80;71.40;;;;;;4983177;28;20194;-70
2023/04/06 01:05:04;;;;;;;17.90;10.50;;;2.90;71.10;;;;;;4980792;28;20474;-71
2023/04/06 01:07:30;;;;;;;18.23;9.68;;;2.90;70.70;;;;;;4989569;28;20777;-69
2023/04/06 01:09:56;;;;;;;16.03;9.23;;;2.90;70.50;;;;;;4991724;28;20246;-71
2023/04/06 01:12:21;;;;;;;18.30;9.73;;;3.00;70.10;;;;;;4992806;28;20187;-71
2023/04/06 01:14:47;;;;;;;15.30;8.70;;;2.90;69.80;;;;;;4988460;28;20210;-70
2023/04/06 01:17:13;;;;;;;16.47;10.50;;;2.90;70.10;;;;;;4992445;28;20186;-70
2023/04/06 01:19:40;;;;;;;16.17;9.40;;;3.00;70.40;;;;;;4994531;28;20197;-70
2023/04/06 01:22:06;;;;;;;15.13;9.37;;;3.00;70.10;;;;;;4992549;28;20186;-73
2023/04/06 01:24:31;;;;;;;14.37;8.33;;;3.00;70.20;;;;;;4991100;28;20857;-73
2023/04/06 01:26:57;;;;;;;21.17;9.90;;;3.00;70.10;;;;;;4993737;28;20465;-72
2023/04/06 01:29:23;;;;;;;18.13;10.20;;;2.90;70.50;;;;;;4991976;28;20426;-71
2023/04/06 01:31:48;;;;;;;19.80;10.10;;;2.80;71.00;;;;;;4990816;28;20230;-72
2023/04/06 01:34:14;;;;;;;13.37;8.50;;;2.80;71.40;;;;;;4994722;28;20631;-72
2023/04/06 01:36:40;;;;;;;18.33;9.50;;;2.80;71.70;;;;;;4997901;28;20240;-71
2023/04/06 01:39:06;;;;;;;13.00;8.10;;;2.80;71.60;;;;;;4998624;28;20178;-73
2023/04/06 01:41:31;;;;;;;14.20;8.97;;;2.80;71.60;;;;;;4997056;28;20487;-71
2023/04/06 01:43:57;;;;;;;14.40;9.33;;;2.70;71.40;;;;;;4990847;28;20375;-72
2023/04/06 01:46:23;;;;;;;18.20;9.53;;;2.70;71.40;;;;;;4995536;28;20225;-71
2023/04/06 01:48:49;;;;;;;17.80;9.70;;;2.60;71.70;;;;;;4992282;28;20918;-72
2023/04/06 01:51:15;;;;;;;19.20;9.97;;;2.60;71.70;;;;;;4997813;28;20190;-71
2023/04/06 01:53:40;;;;;;;18.93;10.80;;;2.50;72.10;;;;;;4987968;28;20468;-72
2023/04/06 01:56:06;;;;;;;21.90;10.20;;;2.50;72.30;;;;;;4987312;28;20233;-71
2023/04/06 01:58:32;;;;;;;18.27;9.90;;;2.50;72.30;;;;;;4992604;28;20565;-70
2023/04/06 02:00:57;;;;;;;18.70;9.67;;;2.50;72.30;;;;;;4992979;28;20740;-72
2023/04/06 02:03:23;;;;;;;18.50;9.70;;;2.40;72.10;;;;;;4988377;28;20218;-72
2023/04/06 02:05:49;;;;;;;16.70;9.70;;;2.40;72.30;;;;;;4992684;28;20221;-72
2023/04/06 02:08:14;;;;;;;14.60;9.27;;;2.30;72.70;;;;;;4992163;28;20678;-70
2023/04/06 02:10:40;;;;;;;14.20;8.40;;;2.30;72.90;;;;;;4992115;28;20646;-71
2023/04/06 02:13:06;;;;;;;14.27;8.93;;;2.30;72.90;;;;;;4994840;28;20178;-73
2023/04/06 02:15:31;;;;;;;14.83;9.10;;;2.20;73.00;;;;;;4993086;28;20198;-73
2023/04/06 02:17:58;;;;;;;18.70;8.90;;;2.20;73.30;;;;;;4993623;28;20208;-71
2023/04/06 02:20:24;;;;;;;16.00;8.97;;;2.20;73.30;;;;;;4995124;28;20183;-72
2023/04/06 02:22:49;;;;;;;18.93;10.33;;;2.20;73.30;;;;;;5003471;28;20483;-72
2023/04/06 02:25:15;;;;;;;19.13;10.33;;;2.20;73.50;;;;;;4991804;28;20492;-73
2023/04/06 02:27:41;;;;;;;16.93;10.00;;;2.20;73.30;;;;;;5000935;28;20561;-71
2023/04/06 02:30:07;;;;;;;18.33;10.37;;;2.10;73.30;;;;;;4998303;28;20457;-73
2023/04/06 02:32:33;;;;;;;20.03;10.33;;;2.00;73.50;;;;;;4993888;28;20222;-72
2023/04/06 02:34:58;;;;;;;18.77;9.40;;;2.00;73.30;;;;;;4989957;28;20496;-71
2023/04/06 02:37:24;;;;;;;19.10;10.70;;;2.00;73.20;;;;;;4993171;28;20974;-71
2023/04/06 02:39:50;;;;;;;15.20;9.30;;;2.00;72.90;;;;;;4992640;28;20553;-70
2023/04/06 02:42:16;;;;;;;17.53;9.50;;;2.00;72.60;;;;;;4993222;28;20182;-71
2023/04/06 02:44:42;;;;;;;19.87;9.97;;;1.90;72.70;;;;;;4986542;28;20639;-71
2023/04/06 02:47:08;;;;;;;18.27;10.23;;;1.90;72.70;;;;;;4991266;28;20462;-73
2023/04/06 02:49:34;;;;;;;17.70;10.40;;;1.90;73.00;;;;;;4992123;28;20436;-71
2023/04/06 02:52:00;;;;;;;19.00;10.00;;;1.90;73.00;;;;;;4993158;28;20528;-71
2023/04/06 02:54:25;;;;;;;15.70;9.97;;;2.00;73.20;;;;;;4989106;28;20218;-73
2023/04/06 02:56:51;;;;;;;17.20;9.57;;;2.00;73.20;;;;;;4994456;28;20194;-71
2023/04/06 02:59:17;;;;;;;23.60;10.00;;;2.00;73.30;;;;;;4993151;28;20248;-71
2023/04/06 03:01:42;;;;;;;16.47;9.13;;;2.00;73.00;;;;;;4991605;28;20189;-71
2023/04/06 03:04:08;;;;;;;23.40;11.77;;;1.90;72.90;;;;;;4989932;28;20214;-73
2023/04/06 03:06:34;;;;;;;22.20;9.50;;;1.90;73.00;;;;;;4995471;28;20256;-73
2023/04/06 03:08:59;;;;;;;18.83;9.73;;;1.80;73.20;;;;;;4995918;28;20179;-72
2023/04/06 03:11:26;;;;;;;18.13;9.80;;;1.80;73.30;;;;;;4993189;28;20186;-72
2023/04/06 03:13:52;;;;;;;15.80;10.20;;;1.90;73.50;;;;;;4990387;28;20203;-72
2023/04/06 03:16:17;;;;;;;17.70;10.60;;;1.80;73.60;;;;;;4991511;28;20297;-70
2023/04/06 03:18:44;;;;;;;23.90;10.20;;;1.90;73.50;;;;;;4990740;28;20669;-70
2023/04/06 03:21:10;;;;;;;18.15;10.45;;;1.90;73.50;;;;;;4989864;28;20274;-72
2023/04/06 03:23:36;;;;;;;19.80;9.90;;;1.90;73.30;;;;;;4994985;28;20318;-71
2023/04/06 03:26:02;;;;;;;14.73;9.60;;;1.80;73.50;;;;;;4991198;28;20180;-73
2023/04/06 03:28:28;;;;;;;15.48;9.13;;;1.80;73.50;;;;;;4993425;28;20186;-71
2023/04/06 03:30:53;;;;;;;19.07;10.27;;;1.70;73.50;;;;;;4995115;28;20190;-72
2023/04/06 03:33:19;;;;;;;20.90;10.23;;;1.70;73.60;;;;;;5004091;28;20217;-72
2023/04/06 03:35:45;;;;;;;21.73;11.20;;;1.60;73.70;;;;;;5014466;28;20178;-72
2023/04/06 03:38:10;;;;;;;19.37;10.47;;;1.60;74.00;;;;;;5011600;28;20306;-74
2023/04/06 03:40:36;;;;;;;18.60;10.60;;;1.60;74.20;;;;;;5015307;28;20194;-74
2023/04/06 03:43:02;;;;;;;26.87;11.10;;;1.60;74.20;;;;;;5015764;28;20182;-70
2023/04/06 03:45:27;;;;;;;21.90;11.30;;;1.70;74.00;;;;;;5000821;28;20197;-71
2023/04/06 03:47:53;;;;;;;14.83;9.73;;;1.70;74.20;;;;;;5007224;28;20218;-71
2023/04/06 03:50:19;;;;;;;18.27;10.53;;;1.70;74.30;;;;;;5000663;28;20191;-71
2023/04/06 03:52:44;;;;;;;16.43;10.27;;;1.60;74.30;;;;;;4995585;28;20189;-73
2023/04/06 03:55:10;;;;;;;17.30;10.90;;;1.60;74.50;;;;;;4992538;28;21184;-71
2023/04/06 03:57:37;;;;;;;22.13;10.87;;;1.60;74.60;;;;;;4998299;28;20332;-72
2023/04/06 04:00:04;;;;;;;17.95;9.80;;;1.60;74.50;;;;;;5004253;28;20190;-70
2023/04/06 04:02:29;;;;;;;19.77;10.40;;;1.70;74.50;;;;;;5000917;28;20178;-73
2023/04/06 04:04:55;;;;;;;17.00;10.00;;;1.70;74.30;;;;;;4988751;28;20434;-73
2023/04/06 04:07:20;;;;;;;16.00;9.80;;;1.70;74.20;;;;;;4998205;28;20213;-71
2023/04/06 04:09:46;;;;;;;18.47;10.00;;;1.70;74.00;;;;;;5001852;28;20186;-70
2023/04/06 04:12:14;;;;;;;19.20;10.90;;;1.60;74.20;;;;;;4994692;28;20202;-71
2023/04/06 04:14:40;;;;;;;21.58;10.85;;;1.60;74.30;;;;;;4989139;28;20466;-72
2023/04/06 04:17:05;;;;;;;18.80;10.50;;;1.60;74.60;;;;;;4989764;28;20664;-72
2023/04/06 04:19:31;;;;;;;21.53;10.43;;;1.60;74.80;;;;;;4991975;28;20185;-72
2023/04/06 04:21:57;;;;;;;19.33;10.77;;;1.50;74.80;;;;;;4987113;28;20187;-71
2023/04/06 04:24:22;;;;;;;21.30;10.77;;;1.50;74.80;;;;;;4985748;28;20222;-71
2023/04/06 04:26:48;;;;;;;16.50;9.90;;;1.50;74.80;;;;;;4982857;28;21012;-72
2023/04/06 04:29:13;;;;;;;18.67;10.53;;;1.50;75.10;;;;;;4991225;28;20689;-71
2023/04/06 04:31:39;;;;;;;20.07;10.90;;;1.50;75.10;;;;;;4991718;28;20174;-72
2023/04/06 04:34:06;;;;;;;23.40;12.00;;;1.50;75.20;;;;;;4987440;28;20207;-72
2023/04/06 04:36:32;;;;;;;27.70;11.30;;;1.40;75.20;;;;;;4990229;28;20315;-74
2023/04/06 04:38:57;;;;;;;17.70;10.90;;;1.50;75.40;;;;;;4990355;28;20226;-71
2023/04/06 04:41:23;;;;;;;17.47;10.13;;;1.40;75.40;;;;;;4989540;28;20281;-73
2023/04/06 04:43:49;;;;;;;20.50;10.73;;;1.40;75.40;;;;;;4986671;28;20222;-70
2023/04/06 04:46:15;;;;;;;19.73;10.47;;;1.40;75.40;;;;;;4988128;28;20213;-73
2023/04/06 04:48:41;;;;;;;26.67;11.13;;;1.40;75.50;;;;;;4990399;28;20715;-72
2023/04/06 04:51:06;;;;;;;20.10;10.60;;;1.40;75.50;;;;;;4990800;28;20265;-71
2023/04/06 04:53:32;;;;;;;19.80;10.27;;;1.40;75.50;;;;;;4987217;28;20453;-72
2023/04/06 04:55:57;;;;;;;17.10;10.30;;;1.40;75.70;;;;;;4986327;28;20215;-71
2023/04/06 04:58:23;;;;;;;19.13;10.47;;;1.40;75.70;;;;;;4991278;28;20638;-69
2023/04/06 05:00:49;;;;;;;16.10;10.00;;;1.40;75.70;;;;;;4992272;28;20604;-70
2023/04/06 05:03:20;;;;;;;17.40;10.37;;;1.40;75.70;;;;;;4987447;28;20241;-72
2023/04/06 05:05:45;;;;;;;20.20;10.60;;;1.50;75.70;;;;;;4992958;28;20407;-71
2023/04/06 05:08:12;;;;;;;21.10;11.47;;;1.50;75.50;;;;;;4993504;28;20237;-72
2023/04/06 05:10:37;;;;;;;22.42;12.07;;;1.40;75.70;;;;;;4992086;28;20232;-71
2023/04/06 05:13:03;;;;;;;20.53;11.20;;;1.50;75.80;;;;;;4995205;28;20265;-71
2023/04/06 05:15:29;;;;;;;23.83;11.80;;;1.50;75.80;;;;;;4998102;28;20562;-73
2023/04/06 05:17:55;;;;;;;22.60;12.10;;;1.60;75.70;;;;;;4985525;28;20642;-72
2023/04/06 05:20:20;;;;;;;20.38;10.82;;;1.60;75.50;;;;;;4991143;28;20229;-71
2023/04/06 05:22:46;;;;;;;18.30;10.80;;;1.70;75.50;;;;;;4996359;28;20730;-74
2023/04/06 05:25:13;;;;;;;20.47;9.97;;;1.70;75.40;;;;;;4981991;28;20217;-73
2023/04/06 05:27:39;;;;;;;19.58;11.70;;;1.70;75.40;;;;;;4988799;28;20297;-72
2023/04/06 05:30:06;;;;;;;21.08;10.77;;;1.70;74.90;;;;;;4990358;28;20175;-71
2023/04/06 05:32:31;;;;;;;19.80;10.45;;;1.80;75.10;;;;;;4990420;28;20182;-73
2023/04/06 05:34:57;;;;;;;20.97;11.70;;;1.80;74.80;;;;;;4989316;28;20221;-71
2023/04/06 05:37:23;;;;;;;20.90;11.93;;;1.80;74.90;;;;;;4986885;28;20680;-72
2023/04/06 05:39:48;;;;;;;22.03;10.87;;;1.80;74.90;;;;;;4989974;28;20572;-71
2023/04/06 05:42:15;;;;;;;20.60;11.27;;;1.90;75.10;;;;;;4993220;28;20785;-72
2023/04/06 05:44:40;;;;;;;22.08;11.75;;;1.90;74.90;;;;;;4986555;28;20206;-71
2023/04/06 05:47:06;;;;;;;18.73;11.60;;;2.00;74.80;;;;;;4989770;28;20551;-73
2023/04/06 05:49:32;;;;;;;20.07;11.20;;;2.00;74.90;;;;;;4987096;28;20208;-72
2023/04/06 05:51:57;;;;;;;16.47;10.30;;;2.10;74.60;;;;;;4985390;28;20210;-70
2023/04/06 05:54:23;;;;;;;22.50;12.03;;;2.10;74.80;;;;;;4987358;28;20207;-71
2023/04/06 05:56:48;;;;;;;21.90;12.37;;;2.20;74.80;;;;;;4985297;28;20189;-71
2023/04/06 05:59:15;;;;;;;23.43;11.90;;;2.20;74.80;;;;;;4990927;28;20209;-73
2023/04/06 06:01:41;;;;;;;36.05;11.13;;;2.20;74.60;;;;;;4988049;28;20204;-73
2023/04/06 06:04:06;;;;;;;21.23;11.73;;;2.40;74.50;;;;;;4988344;28;20626;-73
2023/04/06 06:06:32;;;;;;;20.40;11.50;;;2.50;74.20;;;;;;4989717;28;20210;-73
2023/04/06 06:09:02;;;;;;;26.60;13.73;;;2.60;74.00;;;;;;5000467;28;20670;-72
2023/04/06 06:11:29;;;;;;;33.73;13.73;;;2.60;73.70;;;;;;5005432;28;20241;-73
2023/04/06 06:13:55;;;;;;;21.83;12.23;;;2.70;73.50;;;;;;5001061;28;20477;-73
2023/04/06 06:16:21;;;;;;;23.83;11.77;;;2.70;73.20;;;;;;4997841;28;21341;-73
2023/04/06 06:18:47;;;;;;;51.03;17.27;;;2.80;72.90;;;;;;4993778;28;20500;-73
2023/04/06 06:21:14;;;;;;;21.93;11.73;;;2.90;72.60;;;;;;4995991;28;20425;-72
2023/04/06 06:23:41;;;;;;;27.23;12.93;;;3.00;72.00;;;;;;4987279;28;20458;-73
2023/04/06 06:26:07;;;;;;;25.23;12.47;;;3.00;71.60;;;;;;4986361;28;20516;-72
2023/04/06 06:28:32;;;;;;;27.60;12.13;;;3.00;71.70;;;;;;4989062;28;20498;-72
2023/04/06 06:30:58;;;;;;;21.57;13.10;;;3.10;71.80;;;;;;4993470;28;20220;-73
2023/04/06 06:33:25;;;;;;;22.80;13.10;;;3.20;71.70;;;;;;4995277;28;20211;-71
2023/04/06 06:35:51;;;;;;;21.83;12.60;;;3.30;71.60;;;;;;4997800;28;20230;-72
2023/04/06 06:38:17;;;;;;;23.27;12.27;;;3.40;71.30;;;;;;4988396;28;20838;-72
2023/04/06 06:40:43;;;;;;;30.30;13.67;;;3.50;71.10;;;;;;4991334;28;20430;-71
2023/04/06 06:43:08;;;;;;;23.10;12.57;;;3.50;71.10;;;;;;4991021;28;20229;-73
2023/04/06 06:45:34;;;;;;;24.70;13.07;;;3.60;71.00;;;;;;4989589;28;20198;-71
2023/04/06 06:48:00;;;;;;;23.13;13.10;;;3.70;70.50;;;;;;4995956;28;20206;-71
2023/04/06 06:50:25;;;;;;;26.60;13.63;;;3.70;70.70;;;;;;4999054;28;20655;-72
2023/04/06 06:52:51;;;;;;;23.17;13.43;;;3.80;70.80;;;;;;4994096;28;20207;-70
2023/04/06 06:55:18;;;;;;;24.30;13.03;;;4.00;70.80;;;;;;4988077;28;20213;-72
2023/04/06 06:57:46;;;;;;;29.60;14.47;;;4.10;70.40;;;;;;4989567;28;20183;-72
2023/04/06 07:00:13;;;;;;;23.67;13.13;;;4.20;70.20;;;;;;4993069;28;20429;-70
2023/04/06 07:02:38;;;;;;;26.30;14.07;;;4.30;69.80;;;;;;4989263;28;20484;-70
2023/04/06 07:05:05;;;;;;;25.70;13.90;;;4.50;68.90;;;;;;4983109;28;20485;-73
2023/04/06 07:07:32;;;;;;;28.93;14.07;;;4.50;68.90;;;;;;4987021;28;20207;-72
2023/04/06 07:09:58;;;;;;;21.30;13.70;;;4.60;68.90;;;;;;4990066;28;20480;-72
2023/04/06 07:12:23;;;;;;;29.10;13.83;;;4.70;68.20;;;;;;4993286;28;20431;-74
2023/04/06 07:14:49;;;;;;;34.93;14.20;;;4.80;68.20;;;;;;4991927;28;20257;-73
2023/04/06 07:17:15;;;;;;;23.93;14.80;;;4.80;68.20;;;;;;4988410;28;20191;-75
2023/04/06 07:19:40;;;;;;;28.23;14.70;;;4.80;68.20;;;;;;4992638;28;20269;-73
2023/04/06 07:22:06;;;;;;;29.90;15.13;;;4.80;68.20;;;;;;4992407;28;20221;-73
2023/04/06 07:24:32;;;;;;;31.90;14.37;;;4.90;68.00;;;;;;4980377;28;20233;-72
2023/04/06 07:26:58;;;;;;;29.37;15.10;;;5.00;67.70;;;;;;4989335;28;20225;-74
2023/04/06 07:29:24;;;;;;;24.10;14.03;;;5.10;68.20;;;;;;4991461;28;20186;-72
2023/04/06 07:31:49;;;;;;;27.50;14.43;;;5.20;68.00;;;;;;4992330;28;20434;-74
2023/04/06 07:34:15;;;;;;;26.50;14.53;;;5.30;67.70;;;;;;4984372;28;20274;-74
2023/04/06 07:36:41;;;;;;;32.73;16.03;;;5.30;67.50;;;;;;4991837;28;20258;-74
2023/04/06 07:39:07;;;;;;;26.93;14.90;;;5.40;67.20;;;;;;4991168;28;20580;-72
2023/04/06 07:41:33;;;;;;;30.23;14.37;;;5.50;67.20;;;;;;4993601;28;20244;-72
2023/04/06 07:43:58;;;;;;;37.30;16.17;;;5.60;67.20;;;;;;4984650;28;21058;-73
2023/04/06 07:46:24;;;;;;;33.70;14.80;;;5.70;67.30;;;;;;4993381;28;20202;-74
2023/04/06 07:48:50;;;;;;;24.30;13.70;;;5.80;66.60;;;;;;4994160;28;20694;-74
2023/04/06 07:51:17;;;;;;;30.20;15.30;;;6.00;66.00;;;;;;4990081;28;20194;-73
2023/04/06 07:53:44;;;;;;;27.97;14.47;;;6.10;65.70;;;;;;4986915;28;20537;-72
2023/04/06 07:56:10;;;;;;;26.47;15.00;;;6.10;65.80;;;;;;4988333;28;20441;-74
2023/04/06 07:58:36;;;;;;;27.37;15.40;;;6.10;65.60;;;;;;4999012;28;20413;-73
2023/04/06 08:01:01;;;;;;;32.77;15.07;;;6.20;65.60;;;;;;4993287;28;20323;-74
2023/04/06 08:03:27;;;;;;;33.93;16.00;;;6.30;65.60;;;;;;4989503;28;20214;-72
2023/04/06 08:05:53;;;;;;;30.47;16.40;;;6.40;65.30;;;;;;4991190;28;20194;-74
2023/04/06 08:08:21;;;;;;;38.93;16.07;;;6.40;65.00;;;;;;4990382;28;20701;-73
2023/04/06 08:10:47;;;;;;;25.47;14.20;;;6.40;64.80;;;;;;4994336;28;20851;-74
2023/04/06 08:13:13;;;;;;;34.30;16.33;;;6.50;64.80;;;;;;4989254;28;20838;-73
2023/04/06 08:15:38;;;;;;;28.07;15.03;;;6.60;64.70;;;;;;4987726;28;20445;-73
2023/04/06 08:18:04;;;;;;;32.27;16.27;;;6.70;64.50;;;;;;4991061;28;20554;-74
2023/04/06 08:20:30;;;;;;;29.33;15.23;;;6.90;63.70;;;;;;4991777;28;20207;-74
2023/04/06 08:22:55;;;;;;;31.67;15.80;;;6.90;63.70;;;;;;4995821;28;20287;-72
2023/04/06 08:25:21;;;;;;;32.87;15.90;;;7.00;63.40;;;;;;4983153;28;20223;-73
2023/04/06 08:27:46;;;;;;;30.83;14.50;;;7.20;63.40;;;;;;4990390;28;20225;-73
2023/04/06 08:30:14;;;;;;;30.03;14.40;;;7.30;63.10;;;;;;4990060;28;20178;-73
2023/04/06 08:32:41;;;;;;;28.73;15.00;;;7.50;62.00;;;;;;4991641;28;20353;-74
2023/04/06 08:35:07;;;;;;;28.87;14.67;;;7.60;61.30;;;;;;4988595;28;20454;-74
2023/04/06 08:37:33;;;;;;;26.87;14.30;;;7.70;61.60;;;;;;4990288;28;20508;-73
2023/04/06 08:39:59;;;;;;;28.30;15.10;;;7.80;61.20;;;;;;4985403;28;20546;-74
2023/04/06 08:42:28;;;;;;;21.17;13.67;;;7.90;60.60;;;;;;4992180;28;20417;-72
2023/04/06 08:44:55;;;;;;;23.27;14.10;;;8.10;59.90;;;;;;4984025;28;20799;-75
2023/04/06 08:47:21;;;;;;;20.83;13.30;;;8.10;59.20;;;;;;4990211;28;20461;-72
2023/04/06 08:49:47;;;;;;;29.10;14.07;;;8.10;58.90;;;;;;4991808;28;21008;-74
2023/04/06 08:52:15;;;;;;;23.90;13.10;;;8.20;57.60;;;;;;4991135;28;20417;-73
2023/04/06 08:54:40;;;;;;;24.27;13.30;;;8.40;55.80;;;;;;4984627;28;20968;-74
2023/04/06 08:57:07;;;;;;;27.90;12.97;;;8.50;53.80;;;;;;5005274;28;20429;-72
2023/04/06 08:59:34;;;;;;;21.37;12.00;;;8.70;54.60;;;;;;4990714;28;20281;-73
2023/04/06 09:02:02;;;;;;;19.93;11.23;;;8.80;52.90;;;;;;4991429;28;20426;-74
2023/04/06 09:04:28;;;;;;;19.13;11.63;;;8.80;51.00;;;;;;4988636;28;20493;-73
2023/04/06 09:06:54;;;;;;;20.07;11.70;;;8.90;50.60;;;;;;4989984;28;20516;-74
2023/04/06 09:09:20;;;;;;;23.43;12.80;;;9.00;51.70;;;;;;4990971;28;20545;-73
2023/04/06 09:11:47;;;;;;;23.60;12.70;;;9.00;52.00;;;;;;4991035;28;20237;-73
2023/04/06 09:14:13;;;;;;;21.93;13.20;;;9.10;52.50;;;;;;4988035;28;20452;-74
2023/04/06 09:16:43;;;;;;;22.63;13.20;;;9.20;52.50;;;;;;4988799;28;20798;-72
2023/04/06 09:19:09;;;;;;;21.90;12.93;;;9.30;52.40;;;;;;4989298;28;20545;-74
2023/04/06 09:21:36;;;;;;;19.83;12.13;;;9.30;51.60;;;;;;4992195;28;20492;-76
2023/04/06 09:24:03;;;;;;;21.70;11.47;;;9.40;51.30;;;;;;4987177;28;20500;-69
2023/04/06 09:26:29;;;;;;;22.67;12.40;;;9.40;50.60;;;;;;4985135;28;20461;-70
2023/04/06 09:28:57;;;;;;;18.00;11.33;;;9.50;50.60;;;;;;4991922;28;20422;-74
2023/04/06 09:31:27;;;;;;;23.07;12.37;;;9.60;50.30;;;;;;4991500;28;20433;-75
2023/04/06 09:33:54;;;;;;;19.40;11.20;;;9.60;50.10;;;;;;4986999;28;20457;-74
2023/04/06 09:36:29;;;;;;;21.47;11.20;;;9.60;49.70;;;;;;4990273;28;20501;-74
2023/04/06 09:39:03;;;;;;;18.83;11.17;;;9.70;49.30;;;;;;4991568;28;20468;-74
2023/04/06 09:41:30;;;;;;;18.57;10.60;;;9.80;49.10;;;;;;4989981;28;20425;-73
2023/04/06 09:44:14;;;;;;;19.47;10.97;;;9.90;48.50;;;;;;4988408;28;20476;-71
2023/04/06 09:46:44;;;;;;;20.60;10.17;;;10.00;47.30;;;;;;4985017;28;20461;-73
2023/04/06 09:49:11;;;;;;;19.90;9.40;;;10.10;45.30;;;;;;4989029;28;20422;-74
2023/04/06 09:51:40;;;;;;;19.80;10.13;;;10.20;44.10;;;;;;4991765;28;20432;-74
2023/04/06 09:54:07;;;;;;;15.43;9.50;;;10.30;43.40;;;;;;4982553;28;20732;-72
2023/04/06 09:57:15;;;;;;;13.93;9.20;;;10.30;43.10;;;;;;4983970;28;20425;-73
2023/04/06 09:59:51;;;;;;;15.57;9.10;;;10.40;43.90;;;;;;4988630;28;20409;-72
2023/04/06 10:02:34;;;;;;;20.93;10.43;;;10.40;42.40;;;;;;4990262;28;20414;-73
2023/04/06 10:05:12;;;;;;;17.97;10.50;;;10.40;42.80;;;;;;4978851;28;20492;-73
2023/04/06 10:07:40;;;;;;;15.80;9.30;;;10.50;42.70;;;;;;4984035;28;20556;-73
2023/04/06 10:10:06;;;;;;;15.30;9.53;;;10.50;42.60;;;;;;4990120;28;20421;-71
2023/04/06 10:12:32;;;;;;;18.03;9.50;;;10.50;42.40;;;;;;4990658;28;20429;-72
2023/04/06 10:14:58;;;;;;;17.63;9.70;;;10.60;42.70;;;;;;4983346;28;20458;-71
2023/04/06 10:17:24;;;;;;;17.17;8.67;;;10.70;42.00;;;;;;4983966;28;20246;-72
2023/04/06 10:19:59;;;;;;;15.07;8.63;;;10.80;40.70;;;;;;4990791;28;20954;-74
2023/04/06 10:22:36;;;;;;;13.43;8.77;;;10.90;40.20;;;;;;4991080;28;20414;-73
2023/04/06 10:25:02;;;;;;;17.17;9.53;;;11.00;40.00;;;;;;4984433;28;20871;-73
2023/04/06 10:27:29;;;;;;;17.53;9.93;;;11.10;39.20;;;;;;4994236;28;20968;-74
2023/04/06 10:30:05;;;;;;;16.60;9.10;;;11.10;39.10;;;;;;4996117;28;20429;-72
2023/04/06 10:32:35;;;;;;;17.60;8.43;;;11.10;39.50;;;;;;4998813;28;20417;-72
2023/04/06 10:35:11;;;;;;;15.97;9.90;;;11.20;39.50;;;;;;4995862;28;20461;-74
2023/04/06 10:38:07;;;;;;;13.17;8.97;;;11.30;38.60;;;;;;4995269;28;20889;-73
2023/04/06 10:40:36;;;;;;;15.87;8.83;;;11.20;38.40;;;;;;4997269;28;20437;-71
2023/04/06 10:43:22;;;;;;;18.70;9.63;;;11.20;38.60;;;;;;4999006;28;20421;-74
2023/04/06 10:46:00;;;;;;;17.30;8.90;;;11.40;39.10;;;;;;4991174;28;20453;-72
2023/04/06 10:48:40;;;;;;;17.33;9.40;;;11.50;38.00;;;;;;4993169;28;20480;-74
2023/04/06 10:51:11;;;;;;;15.83;9.00;;;11.80;37.40;;;;;;4992198;28;20497;-73
2023/04/06 10:53:37;;;;;;;11.73;7.20;;;12.10;37.10;;;;;;4994208;28;20884;-74
2023/04/06 10:56:09;;;;;;;14.70;8.27;;;12.40;35.70;;;;;;4995558;28;20436;-73
2023/04/06 10:58:34;;;;;;;14.43;8.73;;;12.70;35.20;;;;;;4989536;28;20999;-73
2023/04/06 11:01:00;;;;;;;17.07;9.00;;;12.90;34.50;;;;;;4996647;28;20445;-72
2023/04/06 11:03:27;;;;;;;15.87;8.90;;;12.90;34.10;;;;;;4992510;28;20248;-72
2023/04/06 11:05:53;;;;;;;15.53;9.27;;;13.00;34.00;;;;;;4994691;28;20194;-72
2023/04/06 11:08:32;;;;;;;17.20;9.60;;;13.00;33.70;;;;;;4995497;28;21225;-72
2023/04/06 11:11:06;;;;;;;13.43;8.83;;;13.30;33.90;;;;;;5000788;28;20418;-71
2023/04/06 11:14:01;;;;;;;19.80;8.93;;;13.40;33.10;;;;;;4992379;28;20467;-71
2023/04/06 11:16:29;;;;;;;15.27;9.03;;;13.50;32.80;;;;;;4983521;28;20450;-72
2023/04/06 11:18:59;;;;;;;12.83;8.10;;;13.40;32.90;;;;;;4966432;28;20419;-72
2023/04/06 11:21:51;;;;;;;14.10;8.70;;;13.50;32.90;;;;;;4976192;28;20439;-72
2023/04/06 11:24:22;;;;;;;16.13;8.33;;;13.70;32.40;;;;;;4963944;28;21337;-73
2023/04/06 11:26:55;;;;;;;16.30;8.97;;;13.80;32.90;;;;;;4953057;28;20482;-72
2023/04/06 11:29:26;;;;;;;12.70;8.27;;;13.90;32.00;;;;;;4973785;28;20438;-73
2023/04/06 11:31:54;;;;;;;13.90;8.80;;;13.90;32.70;;;;;;4972013;28;20429;-72
2023/04/06 11:34:21;;;;;;;13.47;8.27;;;14.00;31.50;;;;;;4952887;28;20454;-71
2023/04/06 11:36:49;;;;;;;13.27;9.13;;;13.80;32.40;;;;;;4970529;28;20415;-72
2023/04/06 11:39:20;;;;;;;13.60;8.27;;;14.20;32.30;;;;;;4971204;28;20431;-73
2023/04/06 11:41:50;;;;;;;11.20;8.40;;;14.50;31.30;;;;;;4971286;28;20432;-70
2023/04/06 11:44:34;;;;;;;14.57;8.47;;;14.80;31.70;;;;;;4966956;28;20481;-73
2023/04/06 11:47:04;;;;;;;14.77;8.87;;;15.20;30.10;;;;;;4967000;28;20479;-72
2023/04/06 11:49:31;;;;;;;20.63;8.93;;;15.20;29.60;;;;;;4972031;28;20434;-72
2023/04/06 11:51:58;;;;;;;19.20;9.20;;;15.30;29.80;;;;;;4972699;28;20458;-72
2023/04/06 11:54:31;;;;;;;10.57;7.33;;;15.70;29.00;;;;;;4989435;28;20536;-73
2023/04/06 11:56:56;;;;;;;12.70;8.03;;;15.60;29.00;;;;;;4987840;28;20413;-71
2023/04/06 11:59:22;;;;;;;17.00;8.77;;;15.50;29.10;;;;;;4991682;28;20433;-72
2023/04/06 12:01:48;;;;;;;14.17;8.27;;;15.80;28.60;;;;;;4994804;28;20238;-71
2023/04/06 12:04:14;;;;;;;12.27;8.10;;;15.90;28.60;;;;;;4989348;28;20465;-72
2023/04/06 12:06:40;;;;;;;15.03;9.03;;;15.80;28.50;;;;;;4992004;28;20217;-70
2023/04/06 12:09:05;;;;;;;15.20;9.33;;;15.40;28.70;;;;;;4988748;28;20921;-72
2023/04/06 12:11:31;;;;;;;13.10;7.90;;;15.00;29.30;;;;;;4989465;28;20175;-70
2023/04/06 12:13:59;;;;;;;13.60;9.37;;;14.90;29.30;;;;;;4989862;28;20204;-74
2023/04/06 12:16:24;;;;;;;16.10;8.17;;;15.00;29.20;;;;;;4990016;28;20180;-72
2023/04/06 12:18:51;;;;;;;11.10;8.20;;;15.10;29.10;;;;;;4993461;28;21014;-71
2023/04/06 12:21:16;;;;;;;13.43;8.30;;;15.10;29.20;;;;;;4992825;28;20187;-71
2023/04/06 12:23:42;;;;;;;14.53;9.07;;;15.10;29.10;;;;;;4986912;28;20545;-71
2023/04/06 12:26:08;;;;;;;14.10;7.83;;;14.50;29.60;;;;;;4989042;28;20211;-71
2023/04/06 12:28:33;;;;;;;13.43;8.67;;;14.60;29.90;;;;;;4994090;28;20630;-71
2023/04/06 12:30:59;;;;;;;13.27;7.30;;;14.90;29.70;;;;;;4992464;28;20179;-70
2023/04/06 12:33:25;;;;;;;13.70;8.83;;;15.30;28.90;;;;;;4983928;28;20238;-72
2023/04/06 12:35:50;;;;;;;12.30;9.40;;;15.50;28.70;;;;;;4989686;28;20486;-72
2023/04/06 12:38:16;;;;;;;16.43;8.20;;;15.70;28.60;;;;;;4988125;28;20261;-72